Time;durP1;ratioP1;P1;durP2;ratioP2;P2;SDS_P1;SDS_P2;PMS_P1;PMS_P2;Temp;Humidity;BMP_temperature;BMP_pressure;BME280_temperature;BME280_humidity;BME280_pressure;Samples;Min_cycle;Max_cycle;Signal;HPM_P1;HPM_P2
2021/04/26 00:00:59;;;;;;;3.93;2.47;;;6.20;47.00;;;;;;5012202;23;20239;-70
2021/04/26 00:03:25;;;;;;;6.17;2.27;;;6.30;47.60;;;;;;4988105;28;20234;-70
2021/04/26 00:05:50;;;;;;;2.70;2.10;;;4.80;46.10;;;;;;4999415;28;20290;-70
2021/04/26 00:08:16;;;;;;;2.30;1.67;;;6.20;47.80;;;;;;5001719;28;20183;-70
2021/04/26 00:10:42;;;;;;;1.80;1.03;;;6.10;47.70;;;;;;4988165;28;20286;-70
2021/04/26 00:13:08;;;;;;;3.43;2.00;;;6.10;47.80;;;;;;4984605;28;20245;-70
2021/04/26 00:15:34;;;;;;;4.03;2.27;;;6.10;47.90;;;;;;4999296;28;20699;-69
2021/04/26 00:18:00;;;;;;;1.83;1.73;;;6.10;47.80;;;;;;4998578;28;20295;-69
2021/04/26 00:20:28;;;;;;;1.93;1.40;;;6.10;47.70;;;;;;4999412;28;20275;-69
2021/04/26 00:22:59;;;;;;;2.43;1.90;;;6.10;47.80;;;;;;4989527;28;20283;-69
2021/04/26 00:25:25;;;;;;;2.07;1.70;;;6.10;48.00;;;;;;4997696;28;20285;-69
2021/04/26 00:27:50;;;;;;;3.53;1.90;;;6.00;47.90;;;;;;4999544;28;20638;-69
2021/04/26 00:30:20;;;;;;;6.30;2.07;;;6.00;47.80;;;;;;4996400;28;20306;-69
2021/04/26 00:32:46;;;;;;;2.40;1.90;;;6.00;47.80;;;;;;5000895;28;20187;-69
2021/04/26 00:35:13;;;;;;;2.53;2.23;;;6.20;47.90;;;;;;5001268;28;20187;-68
2021/04/26 00:37:40;;;;;;;2.70;2.10;;;6.00;48.00;;;;;;5001020;28;20227;-69
2021/04/26 00:40:08;;;;;;;4.90;1.67;;;5.90;48.10;;;;;;5002875;28;20286;-68
2021/04/26 00:42:35;;;;;;;2.30;1.90;;;5.90;48.10;;;;;;5001687;28;20310;-68
2021/04/26 00:45:08;;;;;;;2.53;2.13;;;5.90;48.30;;;;;;4981601;28;20250;-68
2021/04/26 00:47:33;;;;;;;3.90;2.00;;;5.80;48.50;;;;;;4999354;28;20192;-68
2021/04/26 00:49:59;;;;;;;2.50;1.97;;;5.80;48.20;;;;;;5020900;23;20250;-68
2021/04/26 00:52:25;;;;;;;3.33;1.73;;;5.80;48.80;;;;;;5019503;28;20277;-69
2021/04/26 00:54:50;;;;;;;2.10;1.70;;;5.70;48.40;;;;;;5009250;23;20247;-69
2021/04/26 00:57:16;;;;;;;2.87;1.93;;;5.70;49.10;;;;;;5016659;28;20633;-69
2021/04/26 00:59:42;;;;;;;5.27;1.93;;;5.60;48.80;;;;;;4997078;23;20234;-69
2021/04/26 01:02:08;;;;;;;5.53;2.27;;;5.50;48.80;;;;;;5006853;23;20239;-70
2021/04/26 01:04:34;;;;;;;4.20;2.20;;;5.50;49.40;;;;;;5016421;28;20278;-69
2021/04/26 01:07:00;;;;;;;4.73;1.97;;;5.50;50.00;;;;;;5006850;28;20236;-70
2021/04/26 01:09:26;;;;;;;11.17;3.20;;;5.40;49.50;;;;;;5028486;23;20350;-69
2021/04/26 01:11:51;;;;;;;3.07;2.20;;;5.40;50.10;;;;;;5065492;28;20274;-69
2021/04/26 01:14:34;;;;;;;3.13;1.83;;;5.40;50.40;;;;;;5063834;28;20194;-69
2021/04/26 01:17:30;;;;;;;1.83;1.70;;;5.30;50.80;;;;;;5064608;28;20225;-69
2021/04/26 01:20:31;;;;;;;1.73;1.63;;;5.30;50.40;;;;;;5061455;23;20261;-69
2021/04/26 01:23:30;;;;;;;3.90;2.13;;;5.20;50.60;;;;;;5065566;22;20716;-69
2021/04/26 01:25:57;;;;;;;2.77;1.93;;;5.20;51.60;;;;;;5072149;28;20218;-69
2021/04/26 01:28:33;;;;;;;5.13;2.03;;;5.10;51.30;;;;;;5083090;22;20241;-69
2021/04/26 01:31:04;;;;;;;2.13;1.83;;;5.10;51.80;;;;;;5073923;28;20565;-70
2021/04/26 01:33:36;;;;;;;2.57;1.77;;;5.10;51.80;;;;;;5071891;28;20249;-69
2021/04/26 01:36:04;;;;;;;2.37;1.93;;;5.00;51.70;;;;;;5071201;28;20198;-70
2021/04/26 01:38:40;;;;;;;3.83;2.13;;;5.00;51.70;;;;;;5074009;28;20277;-69
2021/04/26 01:41:07;;;;;;;3.23;1.60;;;4.90;51.60;;;;;;5076413;28;20244;-68
2021/04/26 01:43:34;;;;;;;3.10;2.40;;;4.90;51.60;;;;;;5073101;28;20282;-69
2021/04/26 01:46:04;;;;;;;2.83;2.10;;;4.90;51.10;;;;;;5066887;23;20239;-68
2021/04/26 01:48:35;;;;;;;2.53;2.10;;;4.90;51.70;;;;;;5021281;28;20592;-69
2021/04/26 01:51:02;;;;;;;3.90;2.20;;;4.80;52.20;;;;;;5020342;28;20965;-69
2021/04/26 01:53:28;;;;;;;2.87;1.83;;;4.80;52.30;;;;;;5004528;28;20666;-70
2021/04/26 01:56:01;;;;;;;2.60;2.00;;;4.80;52.20;;;;;;5021084;28;20231;-69
2021/04/26 01:58:29;;;;;;;5.53;2.53;;;4.80;51.90;;;;;;5060602;23;20241;-70
2021/04/26 02:00:56;;;;;;;3.07;1.87;;;4.70;52.00;;;;;;5063300;22;20230;-69
2021/04/26 02:03:25;;;;;;;7.73;2.40;;;4.70;52.40;;;;;;5047416;22;20222;-69
2021/04/26 02:05:53;;;;;;;1.93;1.77;;;4.70;52.40;;;;;;5064685;28;20657;-69
2021/04/26 02:08:19;;;;;;;3.03;1.53;;;4.70;52.90;;;;;;5064103;28;20197;-69
2021/04/26 02:10:46;;;;;;;3.43;2.20;;;4.60;52.90;;;;;;5060412;28;20225;-70
2021/04/26 02:13:17;;;;;;;4.13;2.47;;;4.60;53.20;;;;;;5065847;28;21960;-69
2021/04/26 02:15:44;;;;;;;3.40;2.20;;;4.60;53.10;;;;;;5064462;28;20261;-70
2021/04/26 02:18:10;;;;;;;1.47;1.37;;;4.50;53.20;;;;;;5065176;28;20722;-70
2021/04/26 02:20:36;;;;;;;2.77;2.03;;;4.50;53.30;;;;;;5060338;28;20240;-70
2021/04/26 02:23:01;;;;;;;2.83;1.80;;;4.50;53.50;;;;;;5064487;28;20570;-70
2021/04/26 02:25:27;;;;;;;4.10;2.10;;;4.50;53.00;;;;;;5076352;22;20248;-69
2021/04/26 02:27:52;;;;;;;2.07;1.80;;;4.50;53.60;;;;;;5066927;28;20768;-69
2021/04/26 02:30:18;;;;;;;2.43;1.63;;;4.50;52.60;;;;;;5080892;22;20647;-68
2021/04/26 02:33:04;;;;;;;3.43;2.10;;;4.50;52.70;;;;;;5085017;22;20283;-68
2021/04/26 02:35:55;;;;;;;6.83;2.40;;;4.50;53.40;;;;;;5074464;28;20194;-69
2021/04/26 02:38:38;;;;;;;2.97;1.90;;;4.40;53.60;;;;;;5074740;28;20222;-69
2021/04/26 02:41:11;;;;;;;4.43;2.70;;;4.30;54.00;;;;;;5061571;28;20299;-69
2021/04/26 02:43:41;;;;;;;3.53;2.30;;;4.20;53.90;;;;;;5074443;23;20485;-69
2021/04/26 02:46:08;;;;;;;3.33;2.23;;;4.20;54.40;;;;;;5068782;28;20222;-69
2021/04/26 02:48:37;;;;;;;3.43;2.17;;;4.20;54.70;;;;;;5065997;28;20596;-69
2021/04/26 02:51:03;;;;;;;2.47;1.80;;;4.10;54.50;;;;;;5073257;22;20209;-69
2021/04/26 02:53:30;;;;;;;2.10;1.77;;;4.10;54.50;;;;;;5077824;28;20680;-69
2021/04/26 02:56:04;;;;;;;2.57;2.07;;;4.10;54.90;;;;;;5072523;28;20221;-69
2021/04/26 02:58:31;;;;;;;1.60;1.30;;;4.10;54.70;;;;;;5073621;28;20252;-69
2021/04/26 03:00:58;;;;;;;2.73;2.00;;;4.10;53.80;;;;;;5020233;22;20806;-69
2021/04/26 03:03:25;;;;;;;2.07;1.93;;;4.10;54.20;;;;;;5002542;28;20249;-69
2021/04/26 03:05:51;;;;;;;2.03;1.60;;;4.10;54.10;;;;;;5021112;28;20301;-69
2021/04/26 03:08:17;;;;;;;2.60;2.10;;;4.10;54.50;;;;;;5021884;28;20327;-69
2021/04/26 03:10:46;;;;;;;2.43;1.70;;;4.10;54.60;;;;;;5007903;28;20228;-69
2021/04/26 03:13:12;;;;;;;2.20;2.00;;;4.00;54.80;;;;;;5021257;28;20238;-69
2021/04/26 03:15:38;;;;;;;1.90;1.70;;;4.00;54.70;;;;;;5021364;28;20223;-69
2021/04/26 03:18:04;;;;;;;2.37;2.17;;;4.00;54.70;;;;;;5020224;28;20207;-69
2021/04/26 03:20:31;;;;;;;2.33;1.83;;;4.00;55.00;;;;;;5021471;28;20226;-69
2021/04/26 03:22:57;;;;;;;2.00;1.63;;;4.00;54.80;;;;;;5022617;28;20242;-69
2021/04/26 03:25:23;;;;;;;2.80;2.00;;;3.90;54.40;;;;;;5052026;23;20324;-69
2021/04/26 03:27:52;;;;;;;3.20;2.23;;;3.90;55.10;;;;;;5068776;28;20316;-69
2021/04/26 03:30:21;;;;;;;4.90;2.03;;;3.80;54.20;;;;;;5066861;22;20718;-69
2021/04/26 03:32:48;;;;;;;1.90;1.50;;;3.90;54.80;;;;;;5064199;28;20213;-70
2021/04/26 03:35:16;;;;;;;2.90;1.63;;;3.80;54.90;;;;;;5066713;28;20197;-69
2021/04/26 03:37:44;;;;;;;4.43;1.80;;;3.80;54.80;;;;;;5067216;28;20214;-70
2021/04/26 03:40:10;;;;;;;3.57;1.70;;;3.80;55.00;;;;;;5065797;28;20701;-69
2021/04/26 03:42:36;;;;;;;2.20;1.90;;;3.80;54.90;;;;;;5066962;28;20229;-70
2021/04/26 03:45:02;;;;;;;3.67;2.43;;;3.70;55.00;;;;;;5066934;28;20201;-70
2021/04/26 03:47:28;;;;;;;2.40;1.83;;;3.70;55.00;;;;;;5059509;28;20193;-69
2021/04/26 03:49:54;;;;;;;3.57;1.83;;;3.70;54.30;;;;;;5087080;22;20237;-70
2021/04/26 03:52:19;;;;;;;7.20;2.27;;;3.70;54.50;;;;;;5063471;28;20244;-70
2021/04/26 03:54:45;;;;;;;2.23;2.03;;;3.70;54.90;;;;;;5077110;28;20224;-68
2021/04/26 03:57:11;;;;;;;2.50;2.00;;;3.70;55.10;;;;;;5080797;28;20690;-69
2021/04/26 03:59:36;;;;;;;1.53;1.20;;;3.60;55.40;;;;;;5078814;28;20216;-69
2021/04/26 04:02:02;;;;;;;3.20;1.70;;;3.60;55.20;;;;;;5078581;28;20747;-70
2021/04/26 04:04:27;;;;;;;1.97;1.23;;;3.60;54.40;;;;;;5068966;28;20221;-69
2021/04/26 04:06:53;;;;;;;2.83;2.23;;;3.60;54.90;;;;;;5075423;28;20586;-69
2021/04/26 04:09:19;;;;;;;1.50;1.20;;;3.60;55.00;;;;;;5074209;28;20249;-69
2021/04/26 04:11:45;;;;;;;2.63;2.00;;;3.60;54.50;;;;;;5083392;22;20576;-70
2021/04/26 04:14:11;;;;;;;5.30;1.70;;;3.60;55.10;;;;;;5075413;28;20229;-69
2021/04/26 04:16:36;;;;;;;6.03;2.13;;;3.50;54.40;;;;;;5076968;22;20298;-69
2021/04/26 04:19:03;;;;;;;4.47;2.10;;;3.50;54.90;;;;;;5075695;28;20241;-70
2021/04/26 04:21:29;;;;;;;13.60;3.27;;;3.50;54.50;;;;;;5077929;22;20760;-69
2021/04/26 04:23:54;;;;;;;4.23;2.33;;;3.50;55.00;;;;;;5068464;28;20212;-69
2021/04/26 04:26:20;;;;;;;4.30;1.73;;;3.50;54.90;;;;;;5067813;28;22104;-70
2021/04/26 04:28:46;;;;;;;2.43;2.23;;;3.50;54.00;;;;;;5054640;22;20244;-70
2021/04/26 04:31:12;;;;;;;1.93;1.70;;;3.50;54.60;;;;;;5028960;28;20235;-70
2021/04/26 04:33:38;;;;;;;2.23;2.00;;;3.50;54.10;;;;;;5060054;22;20274;-70
2021/04/26 04:36:05;;;;;;;5.03;2.30;;;3.50;53.80;;;;;;5064454;22;20301;-70
2021/04/26 04:38:30;;;;;;;3.80;1.80;;;3.50;54.40;;;;;;5034897;28;20187;-70
2021/04/26 04:40:57;;;;;;;1.60;1.33;;;3.60;53.40;;;;;;5061681;22;20241;-69
2021/04/26 04:43:23;;;;;;;2.10;1.70;;;3.60;53.80;;;;;;5054939;28;20581;-69
2021/04/26 04:45:50;;;;;;;2.70;2.00;;;3.60;53.30;;;;;;5072733;22;20307;-69
2021/04/26 04:48:15;;;;;;;3.93;2.30;;;3.60;53.70;;;;;;5061400;28;20222;-69
2021/04/26 04:50:41;;;;;;;2.70;1.63;;;3.60;53.50;;;;;;5062423;28;20201;-68
2021/04/26 04:53:07;;;;;;;2.83;2.00;;;3.70;52.50;;;;;;5066423;28;20282;-69
2021/04/26 04:55:33;;;;;;;1.60;1.50;;;3.70;52.90;;;;;;5066812;28;20225;-66
2021/04/26 04:57:58;;;;;;;2.90;1.63;;;3.80;52.90;;;;;;5068445;28;20404;-65
2021/04/26 05:00:24;;;;;;;2.60;1.80;;;3.80;52.70;;;;;;5067587;28;20366;-70
2021/04/26 05:02:50;;;;;;;2.30;1.07;;;3.90;52.20;;;;;;5057177;28;20259;-70
2021/04/26 05:05:15;;;;;;;4.30;1.83;;;4.00;51.00;;;;;;5062685;28;20271;-69
2021/04/26 05:07:41;;;;;;;2.23;1.73;;;4.00;50.70;;;;;;5035409;23;20285;-67
2021/04/26 05:10:08;;;;;;;3.37;1.90;;;4.10;51.00;;;;;;5012410;28;20729;-67
2021/04/26 05:12:34;;;;;;;4.33;1.70;;;4.20;51.00;;;;;;5025456;28;20781;-67
2021/04/26 05:14:59;;;;;;;2.83;1.33;;;4.30;51.10;;;;;;5016159;28;20369;-67
2021/04/26 05:17:31;;;;;;;1.50;0.80;;;4.30;50.80;;;;;;5035417;28;20191;-67
2021/04/26 05:19:57;;;;;;;3.87;2.03;;;4.30;49.80;;;;;;5021928;28;20241;-67
2021/04/26 05:22:23;;;;;;;2.83;1.70;;;4.40;50.00;;;;;;5036129;28;20227;-67
2021/04/26 05:24:49;;;;;;;2.73;1.90;;;4.50;49.30;;;;;;5035364;28;20712;-67
2021/04/26 05:27:14;;;;;;;1.77;1.67;;;4.50;49.10;;;;;;5040812;28;20310;-67
2021/04/26 05:29:40;;;;;;;2.50;1.97;;;4.70;48.60;;;;;;5039015;28;20199;-67
2021/04/26 05:32:06;;;;;;;5.33;2.17;;;4.80;48.10;;;;;;5036961;28;20219;-67
2021/04/26 05:34:31;;;;;;;4.87;1.83;;;4.90;47.70;;;;;;5021534;28;20234;-67
2021/04/26 05:36:57;;;;;;;3.07;1.93;;;4.90;47.30;;;;;;5035637;28;20245;-67
2021/04/26 05:39:22;;;;;;;1.83;1.47;;;5.10;46.50;;;;;;5030137;28;20227;-69
2021/04/26 05:41:48;;;;;;;2.87;1.70;;;5.40;46.70;;;;;;5026609;28;20202;-68
2021/04/26 05:44:14;;;;;;;3.87;1.73;;;5.30;45.70;;;;;;5016922;28;20282;-67
2021/04/26 05:46:40;;;;;;;2.83;1.97;;;5.40;45.40;;;;;;5019176;28;20227;-67
2021/04/26 05:49:05;;;;;;;4.37;1.67;;;5.40;44.80;;;;;;5033932;28;20238;-67
2021/04/26 05:51:31;;;;;;;2.13;1.73;;;5.50;44.40;;;;;;5025632;28;20323;-67
2021/04/26 05:53:58;;;;;;;1.90;1.40;;;5.60;44.40;;;;;;5010493;28;20195;-67
2021/04/26 05:56:23;;;;;;;1.93;1.53;;;5.80;43.70;;;;;;5025371;28;23353;-68
2021/04/26 05:58:50;;;;;;;3.63;1.83;;;5.90;43.70;;;;;;5036119;28;20222;-67
2021/04/26 06:01:15;;;;;;;2.30;1.70;;;5.90;43.30;;;;;;5020758;28;20325;-67
2021/04/26 06:03:41;;;;;;;8.93;2.00;;;6.00;42.40;;;;;;5025047;28;20232;-66
2021/04/26 06:06:07;;;;;;;3.20;1.93;;;6.10;41.00;;;;;;5006646;28;21479;-66
2021/04/26 06:08:32;;;;;;;1.33;1.23;;;6.20;41.80;;;;;;5030055;28;20673;-66
2021/04/26 06:10:58;;;;;;;2.13;1.77;;;6.10;41.30;;;;;;5020158;28;20242;-66
2021/04/26 06:13:25;;;;;;;3.83;1.40;;;6.00;41.50;;;;;;5016040;28;20226;-66
2021/04/26 06:15:50;;;;;;;3.60;2.00;;;6.30;41.40;;;;;;5037607;28;20225;-66
2021/04/26 06:18:20;;;;;;;1.97;1.50;;;6.50;41.50;;;;;;5035611;28;20227;-67
2021/04/26 06:20:47;;;;;;;1.60;1.30;;;6.70;40.20;;;;;;5032013;28;20238;-68
2021/04/26 06:23:13;;;;;;;1.73;1.47;;;6.70;40.00;;;;;;5019546;28;20664;-67
2021/04/26 06:25:40;;;;;;;4.33;2.03;;;6.70;40.20;;;;;;5004994;28;20705;-67
2021/04/26 06:28:07;;;;;;;1.13;1.03;;;6.60;39.90;;;;;;5032015;28;20828;-67
2021/04/26 06:30:34;;;;;;;3.70;1.50;;;6.60;39.90;;;;;;5033264;28;20218;-67
2021/04/26 06:33:00;;;;;;;4.33;1.80;;;6.70;39.10;;;;;;5032907;28;20241;-67
2021/04/26 06:35:26;;;;;;;2.00;1.40;;;6.70;40.00;;;;;;5035844;28;20226;-67
2021/04/26 06:37:52;;;;;;;2.57;1.57;;;6.90;40.10;;;;;;5038717;28;20223;-67
2021/04/26 06:40:18;;;;;;;1.10;1.00;;;7.10;39.90;;;;;;5022521;28;20242;-67
2021/04/26 06:42:43;;;;;;;5.50;1.73;;;7.20;39.10;;;;;;5026785;28;20722;-67
2021/04/26 06:45:10;;;;;;;2.97;1.20;;;7.20;39.40;;;;;;5031920;28;20252;-66
2021/04/26 06:47:37;;;;;;;3.07;1.10;;;7.40;39.00;;;;;;5033883;28;20186;-66
2021/04/26 06:50:03;;;;;;;1.03;0.93;;;7.50;38.90;;;;;;5030229;28;20257;-66
2021/04/26 06:52:29;;;;;;;3.43;1.60;;;7.50;38.90;;;;;;5036837;28;20254;-68
2021/04/26 06:54:55;;;;;;;1.03;0.90;;;7.60;38.00;;;;;;5021127;28;20309;-66
2021/04/26 06:57:21;;;;;;;1.63;1.43;;;7.70;37.80;;;;;;5018459;28;20222;-67
2021/04/26 06:59:46;;;;;;;1.67;1.27;;;7.60;38.30;;;;;;5034836;28;20226;-67
2021/04/26 07:02:12;;;;;;;2.43;1.13;;;7.70;37.70;;;;;;5031590;28;20214;-67
2021/04/26 07:04:38;;;;;;;2.77;1.50;;;8.00;36.60;;;;;;5034030;28;20306;-67
2021/04/26 07:07:04;;;;;;;2.80;1.77;;;8.00;36.80;;;;;;5009967;28;20237;-67
2021/04/26 07:09:30;;;;;;;2.33;1.63;;;8.20;36.20;;;;;;5032379;28;20707;-67
2021/04/26 07:11:57;;;;;;;2.03;1.77;;;8.20;36.80;;;;;;5025631;28;20741;-67
2021/04/26 07:14:24;;;;;;;3.57;1.50;;;8.40;36.90;;;;;;5013413;28;20195;-67
2021/04/26 07:16:49;;;;;;;1.53;1.43;;;8.50;37.00;;;;;;5026625;28;20237;-67
2021/04/26 07:19:15;;;;;;;2.00;1.63;;;8.50;37.00;;;;;;5031574;28;21022;-67
2021/04/26 07:21:44;;;;;;;4.17;1.90;;;8.50;37.00;;;;;;5025276;28;20416;-67
2021/04/26 07:24:09;;;;;;;1.90;1.37;;;8.50;36.40;;;;;;5011255;28;20597;-67
2021/04/26 07:26:36;;;;;;;1.43;1.10;;;8.80;37.30;;;;;;5035421;28;20191;-66
2021/04/26 07:29:02;;;;;;;3.00;1.40;;;8.70;36.80;;;;;;5031540;28;20268;-66
2021/04/26 07:31:28;;;;;;;5.20;1.97;;;8.90;36.60;;;;;;5024569;28;20247;-67
2021/04/26 07:33:53;;;;;;;2.03;1.80;;;9.20;35.80;;;;;;5013768;28;20250;-67
2021/04/26 07:36:20;;;;;;;1.17;1.07;;;9.50;35.40;;;;;;5010081;28;20807;-66
2021/04/26 07:38:46;;;;;;;5.80;1.77;;;9.70;33.80;;;;;;5033607;28;20643;-67
2021/04/26 07:41:12;;;;;;;2.60;1.97;;;9.60;33.80;;;;;;5027427;28;20298;-68
2021/04/26 07:43:39;;;;;;;1.43;1.33;;;9.60;33.70;;;;;;5013123;28;20230;-67
2021/04/26 07:46:05;;;;;;;1.50;1.40;;;9.30;34.50;;;;;;5033789;28;20223;-66
2021/04/26 07:48:30;;;;;;;2.33;1.50;;;9.30;34.90;;;;;;5028878;28;20309;-68
2021/04/26 07:50:56;;;;;;;1.50;1.40;;;9.60;34.80;;;;;;5013886;28;20568;-68
2021/04/26 07:53:21;;;;;;;1.73;0.97;;;9.80;32.70;;;;;;5037667;28;20587;-68
2021/04/26 07:55:47;;;;;;;2.87;1.30;;;9.60;33.00;;;;;;5006555;28;21261;-68
2021/04/26 07:58:13;;;;;;;2.03;1.47;;;9.40;34.00;;;;;;5025219;28;20256;-66
2021/04/26 08:00:39;;;;;;;1.33;1.23;;;9.40;34.10;;;;;;5030572;28;20741;-67
2021/04/26 08:03:04;;;;;;;1.63;1.50;;;9.50;33.80;;;;;;5032161;28;20231;-68
2021/04/26 08:05:30;;;;;;;1.43;1.33;;;9.60;33.60;;;;;;5017552;28;20277;-68
2021/04/26 08:07:56;;;;;;;2.03;1.50;;;9.80;33.40;;;;;;5018581;28;20272;-67
2021/04/26 08:10:22;;;;;;;4.17;1.33;;;9.70;33.30;;;;;;5033467;28;20261;-70
2021/04/26 08:12:48;;;;;;;2.37;1.53;;;9.70;33.50;;;;;;5029667;28;20595;-67
2021/04/26 08:15:15;;;;;;;4.13;1.90;;;10.10;32.80;;;;;;5010284;28;20231;-68
2021/04/26 08:17:40;;;;;;;2.10;1.30;;;10.40;32.90;;;;;;5015116;28;20187;-68
2021/04/26 08:20:07;;;;;;;1.47;1.37;;;10.70;31.00;;;;;;5031210;28;20701;-68
2021/04/26 08:22:33;;;;;;;1.37;1.17;;;10.40;29.70;;;;;;5027415;28;20617;-68
2021/04/26 08:24:59;;;;;;;1.13;1.03;;;10.30;29.30;;;;;;5031892;28;20229;-68
2021/04/26 08:27:25;;;;;;;2.00;1.23;;;10.60;29.00;;;;;;5030072;28;20227;-68
2021/04/26 08:29:51;;;;;;;1.40;1.30;;;10.60;27.70;;;;;;5010485;28;20206;-68
2021/04/26 08:32:17;;;;;;;1.10;1.00;;;10.70;27.80;;;;;;5036512;28;20704;-68
2021/04/26 08:34:42;;;;;;;2.37;1.27;;;10.30;26.70;;;;;;5026685;28;20222;-68
2021/04/26 08:37:08;;;;;;;2.17;1.20;;;10.40;28.10;;;;;;5028803;28;20288;-68
2021/04/26 08:39:34;;;;;;;1.63;1.00;;;10.70;27.20;;;;;;5032429;28;20350;-68
2021/04/26 08:41:59;;;;;;;2.60;1.27;;;10.80;26.80;;;;;;5036289;28;20276;-68
2021/04/26 08:44:25;;;;;;;1.93;1.40;;;10.70;26.90;;;;;;5035030;28;20183;-67
2021/04/26 08:46:51;;;;;;;1.30;1.20;;;10.80;27.80;;;;;;5027504;28;20309;-67
2021/04/26 08:49:19;;;;;;;1.63;1.30;;;11.10;28.20;;;;;;5034362;28;20250;-67
2021/04/26 08:51:45;;;;;;;1.37;1.07;;;11.30;27.40;;;;;;5035820;28;20220;-67
2021/04/26 08:54:15;;;;;;;1.20;1.10;;;11.60;26.90;;;;;;5037985;28;20583;-67
2021/04/26 08:56:41;;;;;;;1.43;0.90;;;11.40;25.30;;;;;;5040574;28;20294;-67
2021/04/26 08:59:07;;;;;;;1.10;1.00;;;11.00;25.50;;;;;;5041767;28;20293;-67
2021/04/26 09:01:33;;;;;;;1.00;0.80;;;10.60;26.10;;;;;;5039911;28;20242;-68
2021/04/26 09:04:10;;;;;;;2.50;1.20;;;10.90;25.90;;;;;;5043885;28;20249;-67
2021/04/26 09:07:00;;;;;;;1.63;1.07;;;10.90;25.70;;;;;;5034628;28;20237;-68
2021/04/26 09:09:41;;;;;;;1.20;1.10;;;11.20;25.80;;;;;;5018399;28;20247;-67
2021/04/26 09:12:22;;;;;;;1.90;1.43;;;11.10;25.80;;;;;;5031811;28;20240;-68
2021/04/26 09:15:01;;;;;;;1.93;1.30;;;11.00;26.50;;;;;;5037324;28;20327;-67
2021/04/26 09:17:35;;;;;;;2.27;1.17;;;11.30;26.20;;;;;;5038936;28;20198;-67
2021/04/26 09:20:18;;;;;;;3.13;1.50;;;11.50;26.00;;;;;;5036930;28;20241;-67
2021/04/26 09:22:59;;;;;;;1.77;1.20;;;11.50;26.00;;;;;;5034673;28;20711;-67
2021/04/26 09:25:40;;;;;;;1.43;0.97;;;11.70;26.10;;;;;;5036339;28;20634;-68
2021/04/26 09:28:19;;;;;;;2.37;1.27;;;11.60;25.20;;;;;;5021171;28;20221;-68
2021/04/26 09:30:49;;;;;;;2.67;1.33;;;11.70;25.80;;;;;;5035692;28;20771;-68
2021/04/26 09:33:19;;;;;;;1.17;1.07;;;11.90;25.60;;;;;;5032426;28;20235;-68
2021/04/26 09:35:58;;;;;;;1.80;1.57;;;12.10;24.60;;;;;;5035491;28;20197;-68
2021/04/26 09:38:29;;;;;;;1.37;1.27;;;12.20;23.00;;;;;;5006937;28;20202;-67
2021/04/26 09:41:07;;;;;;;1.80;1.20;;;11.90;23.60;;;;;;5035143;28;20236;-68
2021/04/26 09:43:33;;;;;;;1.63;1.10;;;11.80;23.60;;;;;;5028729;28;20242;-69
2021/04/26 09:45:59;;;;;;;0.90;0.87;;;11.50;23.90;;;;;;5038049;28;20334;-67
2021/04/26 09:48:26;;;;;;;4.37;1.10;;;11.50;23.30;;;;;;5038827;28;20233;-68
2021/04/26 09:51:10;;;;;;;3.57;0.90;;;11.60;23.00;;;;;;5020951;28;20204;-68
2021/04/26 09:53:41;;;;;;;0.60;0.60;;;11.80;22.90;;;;;;5039786;28;20258;-67
2021/04/26 09:56:13;;;;;;;2.07;0.97;;;11.70;22.50;;;;;;5034831;28;20222;-68
2021/04/26 09:58:44;;;;;;;2.20;0.90;;;11.70;22.50;;;;;;5036557;28;20231;-68
2021/04/26 10:01:10;;;;;;;3.03;1.07;;;11.90;22.60;;;;;;5036091;28;20234;-68
2021/04/26 10:03:36;;;;;;;1.53;1.10;;;11.90;22.10;;;;;;5015212;28;20227;-70
2021/04/26 10:06:02;;;;;;;1.03;0.93;;;11.90;21.60;;;;;;5016344;28;20213;-68
2021/04/26 10:08:28;;;;;;;0.50;0.50;;;12.10;22.10;;;;;;5036136;28;20195;-69
2021/04/26 10:10:56;;;;;;;0.50;0.50;;;12.00;20.90;;;;;;5035971;28;20234;-69
2021/04/26 10:13:23;;;;;;;0.70;0.70;;;11.90;21.20;;;;;;5027861;28;20225;-68
2021/04/26 10:16:02;;;;;;;0.77;0.70;;;11.90;20.80;;;;;;5033502;28;20269;-69
2021/04/26 10:18:34;;;;;;;0.83;0.80;;;12.00;19.40;;;;;;5032300;28;20304;-68
2021/04/26 10:21:01;;;;;;;1.27;1.07;;;12.10;20.50;;;;;;5002781;28;20254;-68
2021/04/26 10:23:33;;;;;;;0.87;0.60;;;12.10;20.80;;;;;;5013600;28;20497;-68
2021/04/26 10:25:59;;;;;;;0.90;0.90;;;12.10;20.30;;;;;;5035240;28;20237;-65
2021/04/26 10:28:30;;;;;;;0.53;0.53;;;12.20;20.10;;;;;;5019772;28;20234;-68
2021/04/26 10:31:00;;;;;;;1.20;0.90;;;12.40;20.40;;;;;;5036560;28;20233;-69
2021/04/26 10:33:26;;;;;;;1.40;1.03;;;12.40;19.60;;;;;;5038451;28;20309;-68
2021/04/26 10:35:52;;;;;;;2.00;0.90;;;12.10;20.00;;;;;;5019385;28;20187;-68
2021/04/26 10:38:43;;;;;;;1.53;0.83;;;12.10;20.50;;;;;;5036984;28;20199;-66
2021/04/26 10:41:14;;;;;;;0.60;0.60;;;12.30;20.10;;;;;;5033053;28;20407;-68
2021/04/26 10:43:51;;;;;;;1.13;0.80;;;12.20;20.90;;;;;;5026403;28;20347;-67
2021/04/26 10:46:16;;;;;;;2.20;0.60;;;12.60;20.20;;;;;;5031510;28;20218;-67
2021/04/26 10:49:04;;;;;;;2.43;0.83;;;12.40;19.70;;;;;;5036454;28;20234;-67
2021/04/26 10:51:30;;;;;;;1.20;1.10;;;12.50;19.30;;;;;;5038737;28;20234;-69
2021/04/26 10:53:56;;;;;;;0.57;0.57;;;12.50;19.30;;;;;;5015303;28;20210;-68
2021/04/26 10:56:27;;;;;;;0.93;0.80;;;12.40;19.50;;;;;;5021125;28;20226;-68
2021/04/26 10:59:16;;;;;;;2.70;0.80;;;12.50;20.10;;;;;;5038131;28;20227;-68
2021/04/26 11:01:48;;;;;;;0.83;0.77;;;12.50;20.80;;;;;;5001329;28;20233;-67
2021/04/26 11:04:14;;;;;;;0.77;0.67;;;12.70;20.00;;;;;;5030494;28;20321;-68
2021/04/26 11:06:40;;;;;;;0.83;0.83;;;12.70;20.50;;;;;;5029793;28;20226;-69
2021/04/26 11:09:08;;;;;;;0.60;0.60;;;12.80;21.50;;;;;;5010506;28;20238;-69
2021/04/26 11:11:42;;;;;;;0.93;0.73;;;13.10;21.10;;;;;;5012435;28;20245;-69
2021/04/26 11:14:08;;;;;;;0.83;0.83;;;13.10;21.60;;;;;;5017300;28;20748;-68
2021/04/26 11:17:02;;;;;;;2.20;0.97;;;13.00;19.60;;;;;;5019958;28;20230;-67
2021/04/26 11:19:29;;;;;;;1.60;0.90;;;13.30;20.20;;;;;;5033558;28;20267;-68
2021/04/26 11:21:57;;;;;;;0.90;0.90;;;13.30;19.00;;;;;;5009705;28;20223;-68
2021/04/26 11:24:25;;;;;;;0.87;0.70;;;13.50;20.00;;;;;;5026762;28;20237;-68
2021/04/26 11:27:13;;;;;;;2.97;0.77;;;13.80;20.60;;;;;;5034702;28;20194;-68
2021/04/26 11:29:42;;;;;;;0.97;0.90;;;14.00;18.90;;;;;;5017543;28;20207;-68
2021/04/26 11:32:08;;;;;;;2.13;1.10;;;14.10;19.60;;;;;;5030941;28;20223;-68
2021/04/26 11:34:46;;;;;;;2.27;1.07;;;14.10;20.40;;;;;;5016177;28;20231;-68
2021/04/26 11:37:13;;;;;;;0.90;0.90;;;14.70;20.80;;;;;;5033249;28;20302;-67
2021/04/26 11:39:42;;;;;;;0.83;0.80;;;15.50;19.60;;;;;;5018436;28;20237;-67
2021/04/26 11:42:09;;;;;;;1.27;0.67;;;16.60;18.30;;;;;;5039656;28;20237;-67
2021/04/26 11:44:40;;;;;;;2.03;0.90;;;17.90;19.20;;;;;;5034601;28;20213;-69
2021/04/26 11:47:14;;;;;;;0.83;0.73;;;19.00;19.10;;;;;;5008085;28;20662;-68
2021/04/26 11:49:42;;;;;;;0.30;0.30;;;19.30;16.00;;;;;;5025860;28;20233;-72
2021/04/26 11:52:14;;;;;;;0.80;0.80;;;18.30;15.70;;;;;;5028778;28;20239;-73
2021/04/26 11:54:43;;;;;;;1.70;1.17;;;18.40;15.70;;;;;;5019713;28;20582;-72
2021/04/26 11:57:19;;;;;;;0.50;0.43;;;18.20;15.50;;;;;;5038489;28;20582;-73
2021/04/26 12:00:00;;;;;;;1.30;1.20;;;17.20;14.80;;;;;;5036866;28;20188;-71
2021/04/26 12:02:54;;;;;;;0.60;0.50;;;17.80;16.20;;;;;;5020093;28;20202;-72
2021/04/26 12:05:22;;;;;;;1.13;0.80;;;18.80;16.30;;;;;;5019546;28;20233;-72
2021/04/26 12:07:49;;;;;;;1.07;0.60;;;18.90;17.10;;;;;;5015519;28;20234;-71
2021/04/26 12:10:21;;;;;;;1.03;0.70;;;18.50;17.70;;;;;;5021905;28;20234;-72
2021/04/26 12:12:48;;;;;;;2.13;1.13;;;19.30;16.30;;;;;;5036852;28;20231;-72
2021/04/26 12:15:19;;;;;;;0.77;0.77;;;20.50;16.70;;;;;;5036276;28;20229;-72
2021/04/26 12:17:48;;;;;;;0.73;0.60;;;20.00;16.00;;;;;;5036102;28;20681;-73
2021/04/26 12:20:19;;;;;;;0.70;0.70;;;20.90;16.00;;;;;;5038244;28;20622;-72
2021/04/26 12:22:49;;;;;;;0.80;0.80;;;22.20;14.70;;;;;;5032864;28;20241;-71
2021/04/26 12:25:16;;;;;;;1.88;0.85;;;22.60;14.70;;;;;;5037487;28;20212;-74
2021/04/26 12:27:42;;;;;;;0.45;0.45;;;23.90;14.40;;;;;;5021916;28;20185;-72
2021/04/26 12:30:16;;;;;;;0.90;0.70;;;21.90;14.20;;;;;;5029886;28;20237;-74
2021/04/26 12:32:43;;;;;;;0.53;0.53;;;21.20;14.10;;;;;;5033070;28;20200;-72
2021/04/26 12:35:18;;;;;;;0.57;0.50;;;21.40;13.80;;;;;;5015219;28;20714;-73
2021/04/26 12:37:46;;;;;;;0.83;0.57;;;21.60;14.00;;;;;;4993257;28;20256;-74
2021/04/26 12:40:25;;;;;;;1.53;0.90;;;21.60;14.00;;;;;;5010409;28;20264;-73
2021/04/26 12:42:56;;;;;;;2.90;1.17;;;21.10;15.20;;;;;;5029423;28;20222;-71
2021/04/26 12:45:27;;;;;;;0.93;0.73;;;20.20;14.90;;;;;;5029073;28;20217;-71
2021/04/26 12:48:05;;;;;;;1.10;0.93;;;19.70;14.90;;;;;;5033843;28;20635;-74
2021/04/26 12:50:40;;;;;;;0.67;0.67;;;19.40;15.70;;;;;;5031175;28;20200;-75
2021/04/26 12:53:08;;;;;;;0.90;0.70;;;20.30;16.70;;;;;;5025833;28;20275;-75
2021/04/26 12:55:36;;;;;;;1.80;0.70;;;21.80;14.80;;;;;;5013174;28;20234;-72
2021/04/26 12:58:14;;;;;;;1.23;0.87;;;20.80;13.70;;;;;;5036968;28;20233;-73
2021/04/26 13:00:51;;;;;;;1.00;0.90;;;20.80;14.90;;;;;;5025530;28;20261;-73